sensor_id;sensor_type;location;lat;lon;timestamp;temperature;humidity
19359;DHT22;9815;52.334;20.890;2023-07-13T00:01:11;17.90;99.90
19359;DHT22;9815;52.334;20.890;2023-07-13T00:03:39;17.90;99.90
19359;DHT22;9815;52.334;20.890;2023-07-13T00:06:08;17.90;99.90
19359;DHT22;9815;52.334;20.890;2023-07-13T00:08:37;17.80;99.90
19359;DHT22;9815;52.334;20.890;2023-07-13T00:11:06;17.80;99.90
19359;DHT22;9815;52.334;20.890;2023-07-13T00:13:34;17.80;99.90
19359;DHT22;9815;52.334;20.890;2023-07-13T00:16:05;17.80;99.90
19359;DHT22;9815;52.334;20.890;2023-07-13T00:18:35;17.70;99.90
19359;DHT22;9815;52.334;20.890;2023-07-13T00:21:04;17.80;99.90
19359;DHT22;9815;52.334;20.890;2023-07-13T00:23:33;17.80;99.90
19359;DHT22;9815;52.334;20.890;2023-07-13T00:26:02;17.80;99.90
19359;DHT22;9815;52.334;20.890;2023-07-13T00:28:30;17.80;99.90
19359;DHT22;9815;52.334;20.890;2023-07-13T00:31:00;17.70;99.90
19359;DHT22;9815;52.334;20.890;2023-07-13T00:33:29;17.70;99.90
19359;DHT22;9815;52.334;20.890;2023-07-13T00:35:58;17.80;99.90
19359;DHT22;9815;52.334;20.890;2023-07-13T00:38:27;17.70;99.90
19359;DHT22;9815;52.334;20.890;2023-07-13T00:40:55;17.70;99.90
19359;DHT22;9815;52.334;20.890;2023-07-13T00:43:26;17.70;99.90
19359;DHT22;9815;52.334;20.890;2023-07-13T00:46:22;17.70;99.90
19359;DHT22;9815;52.334;20.890;2023-07-13T00:48:52;17.60;99.90
19359;DHT22;9815;52.334;20.890;2023-07-13T00:51:27;17.60;99.90
19359;DHT22;9815;52.334;20.890;2023-07-13T00:53:59;17.60;99.90
19359;DHT22;9815;52.334;20.890;2023-07-13T00:56:28;17.50;99.90
19359;DHT22;9815;52.334;20.890;2023-07-13T00:59:00;17.50;99.90
19359;DHT22;9815;52.334;20.890;2023-07-13T01:01:30;17.50;99.90
19359;DHT22;9815;52.334;20.890;2023-07-13T01:03:58;17.50;99.90
19359;DHT22;9815;52.334;20.890;2023-07-13T01:06:28;17.50;99.90
19359;DHT22;9815;52.334;20.890;2023-07-13T01:08:59;17.50;99.90
19359;DHT22;9815;52.334;20.890;2023-07-13T01:11:28;17.50;99.90
19359;DHT22;9815;52.334;20.890;2023-07-13T01:13:56;17.40;99.90
19359;DHT22;9815;52.334;20.890;2023-07-13T01:16:27;17.40;99.90
19359;DHT22;9815;52.334;20.890;2023-07-13T01:18:57;17.40;99.90
19359;DHT22;9815;52.334;20.890;2023-07-13T01:21:29;17.40;99.90
19359;DHT22;9815;52.334;20.890;2023-07-13T01:24:00;17.50;99.90
19359;DHT22;9815;52.334;20.890;2023-07-13T01:26:29;17.50;99.90
19359;DHT22;9815;52.334;20.890;2023-07-13T01:28:57;17.50;99.90
19359;DHT22;9815;52.334;20.890;2023-07-13T01:31:26;17.50;99.90
19359;DHT22;9815;52.334;20.890;2023-07-13T01:33:55;17.50;99.90
19359;DHT22;9815;52.334;20.890;2023-07-13T01:36:24;17.50;99.90
19359;DHT22;9815;52.334;20.890;2023-07-13T01:38:54;17.40;99.90
19359;DHT22;9815;52.334;20.890;2023-07-13T01:41:22;17.40;99.90
19359;DHT22;9815;52.334;20.890;2023-07-13T01:43:53;17.40;99.90
19359;DHT22;9815;52.334;20.890;2023-07-13T01:46:21;17.40;99.90
19359;DHT22;9815;52.334;20.890;2023-07-13T01:48:50;17.40;99.90
19359;DHT22;9815;52.334;20.890;2023-07-13T01:51:20;17.40;99.90
19359;DHT22;9815;52.334;20.890;2023-07-13T01:53:48;17.40;99.90
19359;DHT22;9815;52.334;20.890;2023-07-13T01:56:19;17.30;99.90
19359;DHT22;9815;52.334;20.890;2023-07-13T01:58:48;17.30;99.90
19359;DHT22;9815;52.334;20.890;2023-07-13T02:01:16;17.30;99.90
19359;DHT22;9815;52.334;20.890;2023-07-13T02:03:46;17.30;99.90
19359;DHT22;9815;52.334;20.890;2023-07-13T02:06:14;17.30;99.90
19359;DHT22;9815;52.334;20.890;2023-07-13T02:08:43;17.20;99.90
19359;DHT22;9815;52.334;20.890;2023-07-13T02:11:12;17.20;99.90
19359;DHT22;9815;52.334;20.890;2023-07-13T02:13:41;17.20;99.90
19359;DHT22;9815;52.334;20.890;2023-07-13T02:16:10;17.20;99.90
19359;DHT22;9815;52.334;20.890;2023-07-13T02:18:39;17.20;99.90
19359;DHT22;9815;52.334;20.890;2023-07-13T02:21:07;17.20;99.90
19359;DHT22;9815;52.334;20.890;2023-07-13T02:23:36;17.20;99.90
19359;DHT22;9815;52.334;20.890;2023-07-13T02:26:04;17.20;99.90
19359;DHT22;9815;52.334;20.890;2023-07-13T02:28:33;17.20;99.90
19359;DHT22;9815;52.334;20.890;2023-07-13T02:31:07;17.20;99.90
19359;DHT22;9815;52.334;20.890;2023-07-13T02:33:36;17.20;99.90
19359;DHT22;9815;52.334;20.890;2023-07-13T02:36:04;17.20;99.90
19359;DHT22;9815;52.334;20.890;2023-07-13T02:38:34;17.20;99.90
19359;DHT22;9815;52.334;20.890;2023-07-13T02:41:03;17.20;99.90
19359;DHT22;9815;52.334;20.890;2023-07-13T02:43:31;17.30;99.90
19359;DHT22;9815;52.334;20.890;2023-07-13T02:46:00;17.30;99.90
19359;DHT22;9815;52.334;20.890;2023-07-13T02:48:38;17.40;99.90
19359;DHT22;9815;52.334;20.890;2023-07-13T02:51:07;17.40;99.90
19359;DHT22;9815;52.334;20.890;2023-07-13T02:53:36;17.40;99.90
19359;DHT22;9815;52.334;20.890;2023-07-13T02:56:05;17.40;99.90
19359;DHT22;9815;52.334;20.890;2023-07-13T02:58:34;17.40;99.90
19359;DHT22;9815;52.334;20.890;2023-07-13T03:01:09;17.40;99.90
19359;DHT22;9815;52.334;20.890;2023-07-13T03:03:40;17.40;99.90
19359;DHT22;9815;52.334;20.890;2023-07-13T03:06:09;17.40;99.90
19359;DHT22;9815;52.334;20.890;2023-07-13T03:08:45;17.40;99.90
19359;DHT22;9815;52.334;20.890;2023-07-13T03:11:17;17.40;99.90
19359;DHT22;9815;52.334;20.890;2023-07-13T03:13:52;17.30;99.90
19359;DHT22;9815;52.334;20.890;2023-07-13T03:16:20;17.30;99.90
19359;DHT22;9815;52.334;20.890;2023-07-13T03:18:53;17.30;99.90
19359;DHT22;9815;52.334;20.890;2023-07-13T03:21:22;17.20;99.90
19359;DHT22;9815;52.334;20.890;2023-07-13T03:23:50;17.20;99.90
19359;DHT22;9815;52.334;20.890;2023-07-13T03:26:20;17.20;99.90
19359;DHT22;9815;52.334;20.890;2023-07-13T03:28:48;17.20;99.90
19359;DHT22;9815;52.334;20.890;2023-07-13T03:31:24;17.20;99.90
19359;DHT22;9815;52.334;20.890;2023-07-13T03:33:55;17.20;99.90
19359;DHT22;9815;52.334;20.890;2023-07-13T03:36:26;17.20;99.90
19359;DHT22;9815;52.334;20.890;2023-07-13T03:38:59;17.30;99.90
19359;DHT22;9815;52.334;20.890;2023-07-13T03:41:35;17.30;99.90
19359;DHT22;9815;52.334;20.890;2023-07-13T03:44:05;17.30;99.90
19359;DHT22;9815;52.334;20.890;2023-07-13T03:46:33;17.30;99.90
19359;DHT22;9815;52.334;20.890;2023-07-13T03:49:04;17.30;99.90
19359;DHT22;9815;52.334;20.890;2023-07-13T03:51:33;17.40;99.90
19359;DHT22;9815;52.334;20.890;2023-07-13T03:54:01;17.40;99.90
19359;DHT22;9815;52.334;20.890;2023-07-13T03:56:30;17.40;99.90
19359;DHT22;9815;52.334;20.890;2023-07-13T03:59:02;17.40;99.90
19359;DHT22;9815;52.334;20.890;2023-07-13T04:01:30;17.50;99.90
19359;DHT22;9815;52.334;20.890;2023-07-13T04:03:59;17.60;99.90
19359;DHT22;9815;52.334;20.890;2023-07-13T04:06:32;17.60;99.90
19359;DHT22;9815;52.334;20.890;2023-07-13T04:09:02;17.70;99.90
19359;DHT22;9815;52.334;20.890;2023-07-13T04:11:33;17.70;99.90
19359;DHT22;9815;52.334;20.890;2023-07-13T04:14:03;17.80;99.90
19359;DHT22;9815;52.334;20.890;2023-07-13T04:16:33;17.90;99.90
19359;DHT22;9815;52.334;20.890;2023-07-13T04:19:01;17.90;99.90
19359;DHT22;9815;52.334;20.890;2023-07-13T04:21:32;18.00;99.90
19359;DHT22;9815;52.334;20.890;2023-07-13T04:24:00;18.10;99.90
19359;DHT22;9815;52.334;20.890;2023-07-13T04:26:30;18.30;99.90
19359;DHT22;9815;52.334;20.890;2023-07-13T04:28:58;18.50;99.90
19359;DHT22;9815;52.334;20.890;2023-07-13T04:31:27;18.60;99.90
19359;DHT22;9815;52.334;20.890;2023-07-13T04:33:55;18.80;99.90
19359;DHT22;9815;52.334;20.890;2023-07-13T04:36:24;18.80;99.90
19359;DHT22;9815;52.334;20.890;2023-07-13T04:38:55;18.90;99.90
19359;DHT22;9815;52.334;20.890;2023-07-13T04:41:23;19.10;99.90
19359;DHT22;9815;52.334;20.890;2023-07-13T04:43:51;19.20;99.90
19359;DHT22;9815;52.334;20.890;2023-07-13T04:46:23;19.30;99.90
19359;DHT22;9815;52.334;20.890;2023-07-13T04:48:51;19.30;99.90
19359;DHT22;9815;52.334;20.890;2023-07-13T04:51:20;19.40;99.90
19359;DHT22;9815;52.334;20.890;2023-07-13T04:53:49;19.40;99.90
19359;DHT22;9815;52.334;20.890;2023-07-13T04:56:23;19.50;99.90
19359;DHT22;9815;52.334;20.890;2023-07-13T04:58:52;19.40;99.90
19359;DHT22;9815;52.334;20.890;2023-07-13T05:01:20;19.50;99.90
19359;DHT22;9815;52.334;20.890;2023-07-13T05:03:48;19.50;99.90
19359;DHT22;9815;52.334;20.890;2023-07-13T05:06:17;19.60;99.90
19359;DHT22;9815;52.334;20.890;2023-07-13T05:08:45;19.70;99.90
19359;DHT22;9815;52.334;20.890;2023-07-13T05:11:13;19.70;99.90
19359;DHT22;9815;52.334;20.890;2023-07-13T05:13:43;19.70;99.90
19359;DHT22;9815;52.334;20.890;2023-07-13T05:16:11;19.80;99.90
19359;DHT22;9815;52.334;20.890;2023-07-13T05:18:39;19.90;99.90
19359;DHT22;9815;52.334;20.890;2023-07-13T05:21:11;19.90;99.90
19359;DHT22;9815;52.334;20.890;2023-07-13T05:23:40;20.00;99.90
19359;DHT22;9815;52.334;20.890;2023-07-13T05:26:10;20.10;99.90
19359;DHT22;9815;52.334;20.890;2023-07-13T05:28:39;20.20;99.90
19359;DHT22;9815;52.334;20.890;2023-07-13T05:31:09;20.20;99.90
19359;DHT22;9815;52.334;20.890;2023-07-13T05:33:38;20.30;99.90
19359;DHT22;9815;52.334;20.890;2023-07-13T05:36:07;20.40;99.90
19359;DHT22;9815;52.334;20.890;2023-07-13T05:38:36;20.50;99.90
19359;DHT22;9815;52.334;20.890;2023-07-13T05:41:04;20.60;99.90
19359;DHT22;9815;52.334;20.890;2023-07-13T05:43:32;20.80;99.90
19359;DHT22;9815;52.334;20.890;2023-07-13T05:46:01;20.80;99.90
19359;DHT22;9815;52.334;20.890;2023-07-13T05:48:31;20.80;99.90
19359;DHT22;9815;52.334;20.890;2023-07-13T05:50:59;20.80;99.90
19359;DHT22;9815;52.334;20.890;2023-07-13T05:53:28;20.90;99.90
19359;DHT22;9815;52.334;20.890;2023-07-13T05:55:56;21.00;99.90
19359;DHT22;9815;52.334;20.890;2023-07-13T05:58:28;21.00;99.90
19359;DHT22;9815;52.334;20.890;2023-07-13T06:01:01;21.20;99.90
19359;DHT22;9815;52.334;20.890;2023-07-13T06:03:32;21.20;99.90
19359;DHT22;9815;52.334;20.890;2023-07-13T06:06:00;21.30;99.90
19359;DHT22;9815;52.334;20.890;2023-07-13T06:08:29;21.40;99.90
19359;DHT22;9815;52.334;20.890;2023-07-13T06:11:02;21.50;99.90
19359;DHT22;9815;52.334;20.890;2023-07-13T06:13:31;21.60;99.90
19359;DHT22;9815;52.334;20.890;2023-07-13T06:16:00;21.60;99.90
19359;DHT22;9815;52.334;20.890;2023-07-13T06:18:33;21.60;99.90
19359;DHT22;9815;52.334;20.890;2023-07-13T06:21:05;21.70;99.90
19359;DHT22;9815;52.334;20.890;2023-07-13T06:23:33;21.70;99.90
19359;DHT22;9815;52.334;20.890;2023-07-13T06:26:02;21.80;99.90
19359;DHT22;9815;52.334;20.890;2023-07-13T06:28:31;21.90;99.90
19359;DHT22;9815;52.334;20.890;2023-07-13T06:31:00;22.00;99.90
19359;DHT22;9815;52.334;20.890;2023-07-13T06:33:28;22.10;99.90
19359;DHT22;9815;52.334;20.890;2023-07-13T06:35:58;22.10;99.90
19359;DHT22;9815;52.334;20.890;2023-07-13T06:38:26;22.20;99.90
19359;DHT22;9815;52.334;20.890;2023-07-13T06:40:55;22.20;99.90
19359;DHT22;9815;52.334;20.890;2023-07-13T06:43:23;22.20;99.90
19359;DHT22;9815;52.334;20.890;2023-07-13T06:45:55;22.20;99.90
19359;DHT22;9815;52.334;20.890;2023-07-13T06:48:23;22.20;99.90
19359;DHT22;9815;52.334;20.890;2023-07-13T06:50:52;22.30;99.90
19359;DHT22;9815;52.334;20.890;2023-07-13T06:53:21;22.40;99.90
19359;DHT22;9815;52.334;20.890;2023-07-13T06:55:50;22.50;99.90
19359;DHT22;9815;52.334;20.890;2023-07-13T06:58:19;22.50;99.90
19359;DHT22;9815;52.334;20.890;2023-07-13T07:00:50;22.60;99.90
19359;DHT22;9815;52.334;20.890;2023-07-13T07:03:19;22.70;99.90
19359;DHT22;9815;52.334;20.890;2023-07-13T07:05:48;22.80;99.90
19359;DHT22;9815;52.334;20.890;2023-07-13T07:08:16;22.80;99.90
19359;DHT22;9815;52.334;20.890;2023-07-13T07:10:46;22.90;99.90
19359;DHT22;9815;52.334;20.890;2023-07-13T07:13:18;23.00;99.90
19359;DHT22;9815;52.334;20.890;2023-07-13T07:15:46;23.00;99.90
19359;DHT22;9815;52.334;20.890;2023-07-13T07:18:15;23.20;99.90
19359;DHT22;9815;52.334;20.890;2023-07-13T07:20:43;23.30;99.90
19359;DHT22;9815;52.334;20.890;2023-07-13T07:23:11;23.50;99.90
19359;DHT22;9815;52.334;20.890;2023-07-13T07:25:40;23.60;99.90
19359;DHT22;9815;52.334;20.890;2023-07-13T07:28:14;23.80;99.90
19359;DHT22;9815;52.334;20.890;2023-07-13T07:30:48;23.90;99.90
19359;DHT22;9815;52.334;20.890;2023-07-13T07:33:20;24.00;99.90
19359;DHT22;9815;52.334;20.890;2023-07-13T07:35:48;24.10;91.30
19359;DHT22;9815;52.334;20.890;2023-07-13T07:38:20;24.20;91.70
19359;DHT22;9815;52.334;20.890;2023-07-13T07:40:52;24.40;83.60
19359;DHT22;9815;52.334;20.890;2023-07-13T07:43:24;24.50;86.40
19359;DHT22;9815;52.334;20.890;2023-07-13T07:45:53;24.60;75.00
19359;DHT22;9815;52.334;20.890;2023-07-13T07:48:21;24.70;79.50
19359;DHT22;9815;52.334;20.890;2023-07-13T07:50:49;25.10;81.80
19359;DHT22;9815;52.334;20.890;2023-07-13T07:53:18;25.70;64.40
19359;DHT22;9815;52.334;20.890;2023-07-13T07:55:46;26.30;56.60
19359;DHT22;9815;52.334;20.890;2023-07-13T07:58:17;26.60;49.70
19359;DHT22;9815;52.334;20.890;2023-07-13T08:00:50;26.60;45.90
19359;DHT22;9815;52.334;20.890;2023-07-13T08:03:21;26.90;44.30
19359;DHT22;9815;52.334;20.890;2023-07-13T08:05:52;26.90;46.10
19359;DHT22;9815;52.334;20.890;2023-07-13T08:08:24;27.30;45.70
19359;DHT22;9815;52.334;20.890;2023-07-13T08:10:53;27.20;42.40
19359;DHT22;9815;52.334;20.890;2023-07-13T08:13:27;27.40;43.40
19359;DHT22;9815;52.334;20.890;2023-07-13T08:15:57;27.60;36.50
19359;DHT22;9815;52.334;20.890;2023-07-13T08:18:25;28.00;31.30
19359;DHT22;9815;52.334;20.890;2023-07-13T08:20:55;28.50;30.40
19359;DHT22;9815;52.334;20.890;2023-07-13T08:23:23;28.60;29.20
19359;DHT22;9815;52.334;20.890;2023-07-13T08:25:51;28.50;29.50
19359;DHT22;9815;52.334;20.890;2023-07-13T08:28:22;28.60;29.20
19359;DHT22;9815;52.334;20.890;2023-07-13T08:30:50;28.80;27.30
19359;DHT22;9815;52.334;20.890;2023-07-13T08:33:21;28.70;27.60
19359;DHT22;9815;52.334;20.890;2023-07-13T08:35:51;28.50;27.10
19359;DHT22;9815;52.334;20.890;2023-07-13T08:38:19;28.30;28.90
19359;DHT22;9815;52.334;20.890;2023-07-13T08:40:55;28.10;28.20
19359;DHT22;9815;52.334;20.890;2023-07-13T08:43:27;27.70;28.50
19359;DHT22;9815;52.334;20.890;2023-07-13T08:46:01;27.30;30.00
19359;DHT22;9815;52.334;20.890;2023-07-13T08:48:35;27.00;29.20
19359;DHT22;9815;52.334;20.890;2023-07-13T08:51:11;26.90;30.10
19359;DHT22;9815;52.334;20.890;2023-07-13T08:53:46;26.80;31.20
19359;DHT22;9815;52.334;20.890;2023-07-13T08:56:19;26.70;30.50
19359;DHT22;9815;52.334;20.890;2023-07-13T08:58:51;26.50;32.00
19359;DHT22;9815;52.334;20.890;2023-07-13T09:01:27;26.40;32.30
19359;DHT22;9815;52.334;20.890;2023-07-13T09:04:05;25.40;36.90
19359;DHT22;9815;52.334;20.890;2023-07-13T09:06:40;24.30;56.70
19359;DHT22;9815;52.334;20.890;2023-07-13T09:09:20;23.50;72.50
19359;DHT22;9815;52.334;20.890;2023-07-13T09:11:58;23.20;80.60
19359;DHT22;9815;52.334;20.890;2023-07-13T09:14:41;22.90;88.00
19359;DHT22;9815;52.334;20.890;2023-07-13T09:17:17;23.00;90.70
19359;DHT22;9815;52.334;20.890;2023-07-13T09:19:52;23.10;82.70
19359;DHT22;9815;52.334;20.890;2023-07-13T09:22:23;23.10;74.10
19359;DHT22;9815;52.334;20.890;2023-07-13T09:25:02;23.30;69.90
19359;DHT22;9815;52.334;20.890;2023-07-13T09:27:36;23.20;74.60
19359;DHT22;9815;52.334;20.890;2023-07-13T09:30:23;23.00;71.80
19359;DHT22;9815;52.334;20.890;2023-07-13T09:32:53;23.00;73.70
19359;DHT22;9815;52.334;20.890;2023-07-13T09:35:31;23.30;69.90
19359;DHT22;9815;52.334;20.890;2023-07-13T09:38:06;23.90;73.20
19359;DHT22;9815;52.334;20.890;2023-07-13T09:43:37;24.20;59.00
19359;DHT22;9815;52.334;20.890;2023-07-13T09:46:20;24.00;62.90
19359;DHT22;9815;52.334;20.890;2023-07-13T09:48:49;23.90;61.60
19359;DHT22;9815;52.334;20.890;2023-07-13T09:51:19;23.70;64.90
19359;DHT22;9815;52.334;20.890;2023-07-13T09:53:47;23.60;68.10
19359;DHT22;9815;52.334;20.890;2023-07-13T09:56:20;23.20;72.50
19359;DHT22;9815;52.334;20.890;2023-07-13T09:58:48;23.20;77.40
19359;DHT22;9815;52.334;20.890;2023-07-13T10:01:31;22.70;92.90
19359;DHT22;9815;52.334;20.890;2023-07-13T10:04:00;22.50;96.20
19359;DHT22;9815;52.334;20.890;2023-07-13T10:06:30;22.40;99.90
19359;DHT22;9815;52.334;20.890;2023-07-13T10:08:58;22.10;99.90
19359;DHT22;9815;52.334;20.890;2023-07-13T10:11:29;21.80;99.90
19359;DHT22;9815;52.334;20.890;2023-07-13T10:13:59;21.60;99.90
19359;DHT22;9815;52.334;20.890;2023-07-13T10:16:31;21.30;99.90
19359;DHT22;9815;52.334;20.890;2023-07-13T10:19:06;21.10;99.90
19359;DHT22;9815;52.334;20.890;2023-07-13T10:21:45;21.00;99.90
19359;DHT22;9815;52.334;20.890;2023-07-13T10:24:20;21.00;99.90
19359;DHT22;9815;52.334;20.890;2023-07-13T10:26:54;20.70;99.90
19359;DHT22;9815;52.334;20.890;2023-07-13T10:29:25;20.50;99.90
19359;DHT22;9815;52.334;20.890;2023-07-13T10:31:54;20.30;99.90
19359;DHT22;9815;52.334;20.890;2023-07-13T10:34:25;20.20;99.90
19359;DHT22;9815;52.334;20.890;2023-07-13T10:36:55;20.20;99.90
19359;DHT22;9815;52.334;20.890;2023-07-13T10:39:26;20.20;99.90
19359;DHT22;9815;52.334;20.890;2023-07-13T10:41:58;20.10;99.90
19359;DHT22;9815;52.334;20.890;2023-07-13T10:44:30;20.10;99.90
19359;DHT22;9815;52.334;20.890;2023-07-13T10:47:01;20.00;99.90
19359;DHT22;9815;52.334;20.890;2023-07-13T10:49:31;19.90;99.90
19359;DHT22;9815;52.334;20.890;2023-07-13T10:52:02;19.80;99.90
19359;DHT22;9815;52.334;20.890;2023-07-13T10:54:32;19.70;99.90
19359;DHT22;9815;52.334;20.890;2023-07-13T10:57:15;19.50;99.90
19359;DHT22;9815;52.334;20.890;2023-07-13T10:59:47;19.40;99.90
19359;DHT22;9815;52.334;20.890;2023-07-13T11:02:25;19.30;99.90
19359;DHT22;9815;52.334;20.890;2023-07-13T11:04:56;19.20;99.90
19359;DHT22;9815;52.334;20.890;2023-07-13T11:07:28;19.40;99.90
19359;DHT22;9815;52.334;20.890;2023-07-13T11:09:58;19.40;99.90
19359;DHT22;9815;52.334;20.890;2023-07-13T11:15:13;19.20;99.90
19359;DHT22;9815;52.334;20.890;2023-07-13T11:17:49;19.10;99.90
19359;DHT22;9815;52.334;20.890;2023-07-13T11:20:31;19.00;99.90
19359;DHT22;9815;52.334;20.890;2023-07-13T11:23:36;19.00;99.90
19359;DHT22;9815;52.334;20.890;2023-07-13T11:29:25;18.90;99.90
19359;DHT22;9815;52.334;20.890;2023-07-13T11:31:55;18.80;99.90
19359;DHT22;9815;52.334;20.890;2023-07-13T11:34:27;18.80;99.90
19359;DHT22;9815;52.334;20.890;2023-07-13T11:36:58;18.80;99.90
19359;DHT22;9815;52.334;20.890;2023-07-13T11:39:31;18.80;99.90
19359;DHT22;9815;52.334;20.890;2023-07-13T11:42:02;18.90;99.90
19359;DHT22;9815;52.334;20.890;2023-07-13T11:44:34;19.00;99.90
19359;DHT22;9815;52.334;20.890;2023-07-13T11:47:09;19.00;99.90
19359;DHT22;9815;52.334;20.890;2023-07-13T11:49:43;19.00;99.90
19359;DHT22;9815;52.334;20.890;2023-07-13T11:52:16;19.00;99.90
19359;DHT22;9815;52.334;20.890;2023-07-13T11:54:49;19.00;99.90
19359;DHT22;9815;52.334;20.890;2023-07-13T11:57:25;19.00;99.90
19359;DHT22;9815;52.334;20.890;2023-07-13T11:59:55;19.10;99.90
19359;DHT22;9815;52.334;20.890;2023-07-13T12:02:28;19.10;99.90
19359;DHT22;9815;52.334;20.890;2023-07-13T12:04:57;19.10;99.90
19359;DHT22;9815;52.334;20.890;2023-07-13T12:07:28;19.20;99.90
19359;DHT22;9815;52.334;20.890;2023-07-13T12:10:02;19.30;99.90
19359;DHT22;9815;52.334;20.890;2023-07-13T12:12:30;19.40;99.90
19359;DHT22;9815;52.334;20.890;2023-07-13T12:14:59;19.40;99.90
19359;DHT22;9815;52.334;20.890;2023-07-13T12:17:28;19.40;99.90
19359;DHT22;9815;52.334;20.890;2023-07-13T12:19:57;19.30;99.90
19359;DHT22;9815;52.334;20.890;2023-07-13T12:22:25;19.30;99.90
19359;DHT22;9815;52.334;20.890;2023-07-13T12:24:54;19.20;99.90
19359;DHT22;9815;52.334;20.890;2023-07-13T12:27:26;19.20;99.90
19359;DHT22;9815;52.334;20.890;2023-07-13T12:29:59;19.20;99.90
19359;DHT22;9815;52.334;20.890;2023-07-13T12:32:28;19.00;99.90
19359;DHT22;9815;52.334;20.890;2023-07-13T12:35:13;19.00;99.90
19359;DHT22;9815;52.334;20.890;2023-07-13T12:37:42;18.80;99.90
19359;DHT22;9815;52.334;20.890;2023-07-13T12:40:14;18.80;99.90
19359;DHT22;9815;52.334;20.890;2023-07-13T12:42:46;18.80;99.90
19359;DHT22;9815;52.334;20.890;2023-07-13T12:45:18;18.70;99.90
19359;DHT22;9815;52.334;20.890;2023-07-13T12:47:50;18.70;99.90
19359;DHT22;9815;52.334;20.890;2023-07-13T12:50:20;18.70;99.90
19359;DHT22;9815;52.334;20.890;2023-07-13T12:52:51;18.70;99.90
19359;DHT22;9815;52.334;20.890;2023-07-13T12:55:21;18.70;99.90
19359;DHT22;9815;52.334;20.890;2023-07-13T12:57:54;18.70;99.90
19359;DHT22;9815;52.334;20.890;2023-07-13T13:00:25;18.70;99.90
19359;DHT22;9815;52.334;20.890;2023-07-13T13:02:56;18.80;99.90
19359;DHT22;9815;52.334;20.890;2023-07-13T13:05:47;18.80;99.90
19359;DHT22;9815;52.334;20.890;2023-07-13T13:08:16;18.80;99.90
19359;DHT22;9815;52.334;20.890;2023-07-13T13:10:44;18.80;99.90
19359;DHT22;9815;52.334;20.890;2023-07-13T13:13:14;18.90;99.90
19359;DHT22;9815;52.334;20.890;2023-07-13T13:15:43;18.90;99.90
19359;DHT22;9815;52.334;20.890;2023-07-13T13:18:16;18.90;99.90
19359;DHT22;9815;52.334;20.890;2023-07-13T13:20:45;18.90;99.90
19359;DHT22;9815;52.334;20.890;2023-07-13T13:23:14;18.80;99.90
19359;DHT22;9815;52.334;20.890;2023-07-13T13:25:45;18.80;99.90
19359;DHT22;9815;52.334;20.890;2023-07-13T13:28:18;18.90;99.90
19359;DHT22;9815;52.334;20.890;2023-07-13T13:30:49;18.90;99.90
19359;DHT22;9815;52.334;20.890;2023-07-13T13:33:19;18.90;99.90
19359;DHT22;9815;52.334;20.890;2023-07-13T13:35:48;18.90;99.90
19359;DHT22;9815;52.334;20.890;2023-07-13T13:38:20;18.90;99.90
19359;DHT22;9815;52.334;20.890;2023-07-13T13:40:50;18.90;99.90
19359;DHT22;9815;52.334;20.890;2023-07-13T13:43:22;18.90;99.90
19359;DHT22;9815;52.334;20.890;2023-07-13T13:45:55;18.90;99.90
19359;DHT22;9815;52.334;20.890;2023-07-13T13:48:29;18.90;99.90
19359;DHT22;9815;52.334;20.890;2023-07-13T13:50:59;18.90;99.90
19359;DHT22;9815;52.334;20.890;2023-07-13T13:53:28;19.00;99.90
19359;DHT22;9815;52.334;20.890;2023-07-13T13:55:56;19.10;99.90
19359;DHT22;9815;52.334;20.890;2023-07-13T13:58:28;19.10;99.90
19359;DHT22;9815;52.334;20.890;2023-07-13T14:00:56;19.20;99.90
19359;DHT22;9815;52.334;20.890;2023-07-13T14:03:25;19.30;99.90
19359;DHT22;9815;52.334;20.890;2023-07-13T14:05:55;19.30;99.90
19359;DHT22;9815;52.334;20.890;2023-07-13T14:08:24;19.30;99.90
19359;DHT22;9815;52.334;20.890;2023-07-13T14:10:54;19.40;99.90
19359;DHT22;9815;52.334;20.890;2023-07-13T14:13:28;19.40;99.90
19359;DHT22;9815;52.334;20.890;2023-07-13T14:15:58;19.40;99.90
19359;DHT22;9815;52.334;20.890;2023-07-13T14:18:27;19.50;99.90
19359;DHT22;9815;52.334;20.890;2023-07-13T14:20:56;19.50;99.90
19359;DHT22;9815;52.334;20.890;2023-07-13T14:23:24;19.60;99.90
19359;DHT22;9815;52.334;20.890;2023-07-13T14:25:52;19.70;99.90
19359;DHT22;9815;52.334;20.890;2023-07-13T14:28:24;19.80;99.90
19359;DHT22;9815;52.334;20.890;2023-07-13T14:30:54;19.90;99.90
19359;DHT22;9815;52.334;20.890;2023-07-13T14:33:23;19.90;99.90
19359;DHT22;9815;52.334;20.890;2023-07-13T14:35:51;19.90;99.90
19359;DHT22;9815;52.334;20.890;2023-07-13T14:38:20;19.90;99.90
19359;DHT22;9815;52.334;20.890;2023-07-13T14:40:49;19.80;99.90
19359;DHT22;9815;52.334;20.890;2023-07-13T14:43:17;19.70;99.90
19359;DHT22;9815;52.334;20.890;2023-07-13T14:45:50;19.50;99.90
19359;DHT22;9815;52.334;20.890;2023-07-13T14:48:22;19.50;99.90
19359;DHT22;9815;52.334;20.890;2023-07-13T14:50:53;19.40;99.90
19359;DHT22;9815;52.334;20.890;2023-07-13T14:53:24;19.40;99.90
19359;DHT22;9815;52.334;20.890;2023-07-13T14:55:53;19.30;99.90
19359;DHT22;9815;52.334;20.890;2023-07-13T14:58:22;19.30;99.90
19359;DHT22;9815;52.334;20.890;2023-07-13T15:00:50;19.20;99.90
19359;DHT22;9815;52.334;20.890;2023-07-13T15:03:24;19.20;99.90
19359;DHT22;9815;52.334;20.890;2023-07-13T15:05:53;19.20;99.90
19359;DHT22;9815;52.334;20.890;2023-07-13T15:08:22;19.20;99.90
19359;DHT22;9815;52.334;20.890;2023-07-13T15:10:50;19.30;99.90
19359;DHT22;9815;52.334;20.890;2023-07-13T15:13:21;19.30;99.90
19359;DHT22;9815;52.334;20.890;2023-07-13T15:15:51;19.30;99.90
19359;DHT22;9815;52.334;20.890;2023-07-13T15:18:23;19.30;99.90
19359;DHT22;9815;52.334;20.890;2023-07-13T15:20:52;19.30;99.90
19359;DHT22;9815;52.334;20.890;2023-07-13T15:23:23;19.30;99.90
19359;DHT22;9815;52.334;20.890;2023-07-13T15:25:52;19.20;99.90
19359;DHT22;9815;52.334;20.890;2023-07-13T15:28:21;19.30;99.90
19359;DHT22;9815;52.334;20.890;2023-07-13T15:30:49;19.30;99.90
19359;DHT22;9815;52.334;20.890;2023-07-13T15:33:24;19.30;99.90
19359;DHT22;9815;52.334;20.890;2023-07-13T15:35:54;19.20;99.90
19359;DHT22;9815;52.334;20.890;2023-07-13T15:38:24;19.30;99.90
19359;DHT22;9815;52.334;20.890;2023-07-13T15:40:53;19.30;99.90
19359;DHT22;9815;52.334;20.890;2023-07-13T15:43:22;19.30;99.90
19359;DHT22;9815;52.334;20.890;2023-07-13T15:45:50;19.30;99.90
19359;DHT22;9815;52.334;20.890;2023-07-13T15:48:20;19.40;99.90
19359;DHT22;9815;52.334;20.890;2023-07-13T15:50:53;19.40;99.90
19359;DHT22;9815;52.334;20.890;2023-07-13T15:53:24;19.40;99.90
19359;DHT22;9815;52.334;20.890;2023-07-13T15:55:52;19.40;99.90
19359;DHT22;9815;52.334;20.890;2023-07-13T15:58:21;19.40;99.90
19359;DHT22;9815;52.334;20.890;2023-07-13T16:00:49;19.40;99.90